Time;durP1;ratioP1;P1;durP2;ratioP2;P2;SDS_P1;SDS_P2;PMS_P1;PMS_P2;Temp;Humidity;BMP_temperature;BMP_pressure;BME280_temperature;BME280_humidity;BME280_pressure;Samples;Min_cycle;Max_cycle;Signal;HPM_P1;HPM_P2
2023/08/24 00:01:32;;;;;;;0.10;0.10;;;16.80;99.90;;;;;;5109993;28;20184;-79
2023/08/24 00:03:58;;;;;;;0.10;0.10;;;16.80;99.90;;;;;;5105917;28;20460;-78
2023/08/24 00:06:23;;;;;;;0.10;0.10;;;16.70;99.90;;;;;;5112189;27;20187;-78
2023/08/24 00:08:49;;;;;;;0.10;0.10;;;16.60;99.90;;;;;;5094888;28;20580;-78
2023/08/24 00:11:14;;;;;;;0.10;0.10;;;16.60;99.90;;;;;;5116418;27;20222;-79
2023/08/24 00:13:49;;;;;;;0.10;0.10;;;16.70;99.90;;;;;;5099282;28;20207;-78
2023/08/24 00:16:19;;;;;;;0.10;0.10;;;16.70;99.90;;;;;;5108627;28;20659;-78
2023/08/24 00:18:45;;;;;;;0.10;0.10;;;16.60;99.90;;;;;;5103322;28;20447;-79
2023/08/24 00:21:12;;;;;;;0.10;0.10;;;16.60;99.90;;;;;;5097163;27;21090;-78
2023/08/24 00:23:38;;;;;;;0.10;0.10;;;16.50;99.90;;;;;;5092865;28;20238;-79
2023/08/24 00:26:04;;;;;;;0.10;0.10;;;16.50;99.90;;;;;;5087900;28;20475;-78
2023/08/24 00:28:29;;;;;;;0.10;0.10;;;16.40;99.90;;;;;;5112017;27;20434;-79
2023/08/24 00:30:55;;;;;;;0.10;0.10;;;16.40;99.90;;;;;;5109025;27;20227;-78
2023/08/24 00:33:21;;;;;;;0.10;0.10;;;16.40;99.90;;;;;;5121075;27;20598;-78
2023/08/24 00:35:46;;;;;;;0.10;0.10;;;16.30;99.90;;;;;;5124742;27;20181;-78
2023/08/24 00:38:12;;;;;;;0.10;0.10;;;16.40;99.90;;;;;;5090325;28;20257;-78
2023/08/24 00:40:38;;;;;;;0.10;0.10;;;16.30;99.90;;;;;;5101647;28;20212;-78
2023/08/24 00:43:04;;;;;;;0.10;0.10;;;16.30;99.90;;;;;;5112333;27;20188;-78
2023/08/24 00:45:32;;;;;;;0.10;0.10;;;16.20;99.90;;;;;;5089667;28;20434;-79
2023/08/24 00:47:58;;;;;;;0.10;0.10;;;16.20;99.90;;;;;;5087052;28;20181;-78
2023/08/24 00:50:24;;;;;;;0.10;0.10;;;16.10;99.90;;;;;;5106710;28;20437;-78
2023/08/24 00:52:50;;;;;;;0.10;0.10;;;16.10;99.90;;;;;;5101773;27;20448;-78
2023/08/24 00:55:16;;;;;;;0.10;0.10;;;16.20;99.90;;;;;;5115437;27;20255;-78
2023/08/24 00:57:42;;;;;;;0.10;0.10;;;16.20;99.90;;;;;;5106829;27;20298;-78
2023/08/24 01:00:12;;;;;;;0.10;0.10;;;16.20;99.90;;;;;;5115326;27;20536;-78
2023/08/24 01:02:38;;;;;;;0.10;0.10;;;16.10;99.90;;;;;;5114987;27;20187;-78
2023/08/24 01:05:06;;;;;;;0.10;0.10;;;16.10;99.90;;;;;;5108624;28;20953;-78
2023/08/24 01:07:34;;;;;;;0.10;0.10;;;16.00;99.90;;;;;;5107257;28;20440;-79
2023/08/24 01:10:01;;;;;;;0.10;0.10;;;16.00;99.90;;;;;;5106996;28;20438;-78
2023/08/24 01:13:06;;;;;;;0.10;0.10;;;16.20;99.90;;;;;;5104426;28;20441;-78
2023/08/24 01:15:49;;;;;;;0.10;0.10;;;16.20;99.90;;;;;;5107682;28;20484;-78
2023/08/24 01:18:20;;;;;;;0.10;0.10;;;16.00;99.90;;;;;;5104173;28;20536;-78
2023/08/24 01:20:46;;;;;;;0.10;0.10;;;16.00;99.90;;;;;;5088283;28;20982;-78
2023/08/24 01:23:37;;;;;;;0.10;0.10;;;16.00;99.90;;;;;;5089186;28;20437;-78
2023/08/24 01:26:11;;;;;;;0.10;0.10;;;16.00;99.90;;;;;;5108026;28;20442;-78
2023/08/24 01:28:38;;;;;;;0.10;0.10;;;15.80;99.90;;;;;;5113237;28;20458;-78
2023/08/24 01:31:05;;;;;;;0.10;0.10;;;15.80;99.90;;;;;;5117413;28;20466;-78
2023/08/24 01:33:30;;;;;;;0.10;0.10;;;15.70;99.90;;;;;;5108007;28;20517;-78
2023/08/24 01:35:56;;;;;;;0.10;0.10;;;15.70;99.90;;;;;;5090725;28;20536;-78
2023/08/24 01:38:22;;;;;;;0.10;0.10;;;15.70;99.90;;;;;;5088185;28;20181;-78
2023/08/24 01:41:06;;;;;;;0.10;0.10;;;15.80;99.90;;;;;;5106376;28;20191;-78
2023/08/24 01:43:35;;;;;;;0.10;0.10;;;15.90;99.90;;;;;;5107555;28;20430;-78
2023/08/24 01:46:04;;;;;;;0.10;0.10;;;16.10;99.90;;;;;;5098656;28;20530;-78
2023/08/24 01:48:30;;;;;;;0.10;0.10;;;16.00;99.90;;;;;;5088919;28;20445;-78
2023/08/24 01:50:57;;;;;;;0.10;0.10;;;15.80;99.90;;;;;;5109828;28;20485;-78
2023/08/24 01:53:23;;;;;;;0.10;0.10;;;15.80;99.90;;;;;;5102945;28;21009;-78
2023/08/24 01:55:48;;;;;;;0.10;0.10;;;15.70;99.90;;;;;;5103824;28;20445;-78
2023/08/24 01:58:15;;;;;;;0.10;0.10;;;15.60;99.90;;;;;;5111427;28;20188;-78
2023/08/24 02:00:40;;;;;;;0.10;0.10;;;15.80;99.90;;;;;;5110363;28;20176;-78
2023/08/24 02:03:06;;;;;;;0.10;0.10;;;15.80;99.90;;;;;;5112127;27;20430;-78
2023/08/24 02:05:31;;;;;;;0.10;0.10;;;15.80;99.90;;;;;;5119138;27;20227;-78
2023/08/24 02:07:57;;;;;;;0.10;0.10;;;15.70;99.90;;;;;;5125091;27;20192;-78
2023/08/24 02:10:23;;;;;;;0.10;0.10;;;15.70;99.90;;;;;;5109396;28;20271;-78
2023/08/24 02:12:49;;;;;;;0.10;0.10;;;15.50;99.90;;;;;;5109258;27;20442;-78
2023/08/24 02:15:14;;;;;;;0.10;0.10;;;15.60;99.90;;;;;;5100024;27;20233;-78
2023/08/24 02:17:40;;;;;;;0.10;0.10;;;15.60;99.90;;;;;;5107152;28;20233;-78
2023/08/24 02:20:08;;;;;;;0.10;0.10;;;15.30;99.90;;;;;;5110851;28;20192;-78
2023/08/24 02:22:34;;;;;;;0.10;0.10;;;15.30;99.90;;;;;;5121736;27;20224;-78
2023/08/24 02:25:01;;;;;;;0.10;0.10;;;15.50;99.90;;;;;;5095894;28;20809;-78
2023/08/24 02:27:26;;;;;;;0.10;0.10;;;15.50;99.90;;;;;;5098160;28;20169;-78
2023/08/24 02:29:52;;;;;;;0.10;0.10;;;15.50;99.90;;;;;;5113121;28;20504;-78
2023/08/24 02:32:17;;;;;;;0.10;0.10;;;15.40;99.90;;;;;;5104883;28;20667;-78
2023/08/24 02:34:43;;;;;;;0.10;0.10;;;15.20;99.90;;;;;;5109065;28;20224;-78
2023/08/24 02:37:09;;;;;;;0.10;0.10;;;15.40;99.90;;;;;;5110277;28;20191;-78
2023/08/24 02:39:34;;;;;;;0.10;0.10;;;15.60;99.90;;;;;;5093406;28;20441;-78
2023/08/24 02:42:00;;;;;;;0.10;0.10;;;15.50;99.90;;;;;;5109653;28;20197;-78
2023/08/24 02:44:26;;;;;;;0.10;0.10;;;15.60;99.90;;;;;;5110492;28;20283;-78
2023/08/24 02:46:53;;;;;;;0.10;0.10;;;15.50;99.90;;;;;;5106678;28;20195;-77
2023/08/24 02:49:19;;;;;;;0.10;0.10;;;15.50;99.90;;;;;;5105547;28;20434;-78
2023/08/24 02:51:44;;;;;;;0.10;0.10;;;15.30;99.90;;;;;;5093478;28;20438;-78
2023/08/24 02:54:10;;;;;;;0.10;0.10;;;15.20;99.90;;;;;;5114345;27;20215;-78
2023/08/24 02:56:35;;;;;;;0.10;0.10;;;15.30;99.90;;;;;;5112819;28;20195;-78
2023/08/24 02:59:01;;;;;;;0.10;0.10;;;15.30;99.90;;;;;;5111055;28;20691;-78
2023/08/24 03:01:26;;;;;;;0.10;0.10;;;15.40;99.90;;;;;;5108363;28;20181;-78
2023/08/24 03:03:52;;;;;;;0.10;0.10;;;15.10;99.90;;;;;;5118745;27;20189;-78
2023/08/24 03:06:17;;;;;;;0.10;0.10;;;14.90;99.90;;;;;;5110674;27;20216;-78
2023/08/24 03:08:44;;;;;;;0.10;0.10;;;14.90;99.90;;;;;;5111268;28;20727;-78
2023/08/24 03:11:09;;;;;;;0.10;0.10;;;14.80;99.90;;;;;;5112267;28;20184;-78
2023/08/24 03:13:40;;;;;;;0.10;0.10;;;14.70;99.90;;;;;;5108536;27;20448;-78
2023/08/24 03:16:06;;;;;;;0.10;0.10;;;14.80;99.90;;;;;;5111511;27;20241;-78
2023/08/24 03:18:31;;;;;;;0.10;0.10;;;14.60;99.90;;;;;;5111904;28;20804;-78
2023/08/24 03:20:58;;;;;;;0.10;0.10;;;14.60;99.90;;;;;;5114297;27;20532;-78
2023/08/24 03:23:23;;;;;;;0.10;0.10;;;14.40;99.90;;;;;;5101701;27;20280;-78
2023/08/24 03:25:49;;;;;;;0.10;0.10;;;14.50;99.90;;;;;;5102017;27;20534;-77
2023/08/24 03:28:14;;;;;;;0.10;0.10;;;14.60;99.90;;;;;;5104837;27;20237;-78
2023/08/24 03:30:48;;;;;;;0.10;0.10;;;14.50;99.90;;;;;;5111341;27;20243;-78
2023/08/24 03:33:14;;;;;;;0.10;0.10;;;14.40;99.90;;;;;;5125173;27;20175;-78
2023/08/24 03:35:40;;;;;;;0.10;0.10;;;14.50;99.90;;;;;;5111627;27;21258;-77
2023/08/24 03:38:06;;;;;;;0.10;0.10;;;14.40;99.90;;;;;;5122334;27;20189;-77
2023/08/24 03:40:31;;;;;;;0.10;0.10;;;14.40;99.90;;;;;;5099245;28;20511;-78
2023/08/24 03:42:57;;;;;;;0.10;0.10;;;14.30;99.90;;;;;;5110272;28;20185;-78
2023/08/24 03:45:23;;;;;;;0.10;0.10;;;14.20;99.90;;;;;;5108856;28;20264;-78
2023/08/24 03:47:49;;;;;;;0.10;0.10;;;14.20;99.90;;;;;;5110512;28;20177;-78
2023/08/24 03:50:15;;;;;;;0.10;0.10;;;14.30;99.90;;;;;;5109245;28;20188;-78
2023/08/24 03:52:40;;;;;;;0.10;0.10;;;14.30;99.90;;;;;;5111321;28;20488;-78
2023/08/24 03:55:07;;;;;;;0.10;0.10;;;14.30;99.90;;;;;;5107791;28;20252;-77
2023/08/24 03:57:32;;;;;;;0.10;0.10;;;14.30;99.90;;;;;;5107867;28;20192;-77
2023/08/24 03:59:58;;;;;;;0.10;0.10;;;14.20;99.90;;;;;;5111260;28;20446;-78
2023/08/24 04:02:24;;;;;;;0.10;0.10;;;14.10;99.90;;;;;;5107136;28;20180;-78
2023/08/24 04:04:50;;;;;;;0.10;0.10;;;14.10;99.90;;;;;;5093411;28;20189;-78
2023/08/24 04:07:16;;;;;;;0.10;0.10;;;14.10;99.90;;;;;;5114600;27;20191;-78
2023/08/24 04:09:41;;;;;;;0.10;0.10;;;14.00;99.90;;;;;;5104590;27;20441;-78
2023/08/24 04:12:07;;;;;;;0.10;0.10;;;14.00;99.90;;;;;;5121127;27;20315;-78
2023/08/24 04:14:33;;;;;;;0.10;0.10;;;14.10;99.90;;;;;;5104789;28;20219;-78
2023/08/24 04:16:58;;;;;;;0.10;0.10;;;14.10;99.90;;;;;;5116251;27;20433;-77
2023/08/24 04:19:24;;;;;;;0.10;0.10;;;14.10;99.90;;;;;;5110871;27;20184;-78
2023/08/24 04:21:49;;;;;;;0.10;0.10;;;13.90;99.90;;;;;;5115698;27;20180;-78
2023/08/24 04:24:15;;;;;;;0.10;0.10;;;13.80;99.90;;;;;;5110992;28;20184;-78
2023/08/24 04:26:40;;;;;;;0.10;0.10;;;13.90;99.90;;;;;;5112943;27;20195;-78
2023/08/24 04:29:06;;;;;;;0.10;0.10;;;13.90;99.90;;;;;;5103944;27;20231;-77
2023/08/24 04:31:31;;;;;;;0.10;0.10;;;13.90;99.90;;;;;;5111806;27;20202;-78
2023/08/24 04:33:57;;;;;;;0.10;0.10;;;13.90;99.90;;;;;;5108906;28;20249;-78
2023/08/24 04:36:22;;;;;;;0.10;0.10;;;13.90;99.90;;;;;;5105774;28;20566;-78
2023/08/24 04:38:48;;;;;;;0.10;0.10;;;13.90;99.90;;;;;;5108003;28;20184;-77
2023/08/24 04:41:13;;;;;;;0.10;0.10;;;13.90;99.90;;;;;;5094192;28;20225;-78
2023/08/24 04:43:39;;;;;;;0.10;0.10;;;13.90;99.90;;;;;;5099412;28;20212;-78
2023/08/24 04:46:04;;;;;;;0.10;0.10;;;13.90;99.90;;;;;;5108592;27;20773;-78
2023/08/24 04:48:32;;;;;;;0.10;0.10;;;13.90;99.90;;;;;;5107158;28;20194;-78
2023/08/24 04:50:59;;;;;;;0.10;0.10;;;14.00;99.90;;;;;;5106298;28;20184;-77
2023/08/24 04:53:25;;;;;;;0.10;0.10;;;14.00;99.90;;;;;;5109113;28;20441;-77
2023/08/24 04:55:51;;;;;;;0.10;0.10;;;14.00;99.90;;;;;;5087130;28;20469;-78
2023/08/24 04:58:17;;;;;;;0.10;0.10;;;13.90;99.90;;;;;;5108982;28;20528;-78
2023/08/24 05:00:43;;;;;;;0.10;0.10;;;14.10;99.90;;;;;;5084047;28;20282;-78
2023/08/24 05:03:09;;;;;;;0.10;0.10;;;14.10;99.90;;;;;;5101550;27;20689;-78
2023/08/24 05:05:35;;;;;;;0.10;0.10;;;14.10;99.90;;;;;;5106901;28;20594;-78
2023/08/24 05:08:03;;;;;;;0.10;0.10;;;14.20;99.90;;;;;;5102007;28;20450;-78
2023/08/24 05:10:33;;;;;;;0.10;0.10;;;14.20;99.90;;;;;;5090245;28;20442;-77
2023/08/24 05:12:59;;;;;;;0.10;0.10;;;14.30;99.90;;;;;;5109931;28;20469;-78
2023/08/24 05:15:25;;;;;;;0.10;0.10;;;14.30;99.90;;;;;;5089590;28;20482;-78
2023/08/24 05:17:54;;;;;;;0.10;0.10;;;14.30;99.90;;;;;;5105908;28;20430;-78
2023/08/24 05:20:23;;;;;;;0.10;0.10;;;14.30;99.90;;;;;;5117099;28;20445;-78
2023/08/24 05:22:49;;;;;;;0.10;0.10;;;14.40;99.90;;;;;;5123561;28;20568;-78
2023/08/24 05:25:16;;;;;;;0.10;0.10;;;14.50;99.90;;;;;;5112281;27;20546;-78
2023/08/24 05:27:42;;;;;;;0.10;0.10;;;14.70;99.90;;;;;;5114789;28;20196;-78
2023/08/24 05:30:08;;;;;;;0.10;0.10;;;14.80;99.90;;;;;;5090272;28;21054;-78
2023/08/24 05:32:38;;;;;;;0.10;0.10;;;15.00;99.90;;;;;;5065410;28;20189;-78
2023/08/24 05:35:04;;;;;;;0.10;0.10;;;15.20;99.90;;;;;;5070795;28;20507;-78
2023/08/24 05:37:30;;;;;;;0.10;0.10;;;15.20;99.90;;;;;;5067328;28;20498;-78
2023/08/24 05:39:55;;;;;;;0.10;0.10;;;15.30;99.90;;;;;;5076138;28;20443;-77
2023/08/24 05:42:21;;;;;;;0.10;0.10;;;15.40;99.90;;;;;;5061699;28;20988;-78
2023/08/24 05:44:47;;;;;;;0.10;0.10;;;15.60;99.90;;;;;;5068261;28;20284;-78
2023/08/24 05:47:12;;;;;;;0.10;0.10;;;15.70;99.90;;;;;;5068645;28;20269;-77
2023/08/24 05:49:38;;;;;;;0.10;0.10;;;15.70;99.90;;;;;;5069412;28;20209;-77
2023/08/24 05:52:04;;;;;;;0.10;0.10;;;15.80;99.90;;;;;;5081163;28;20289;-77
2023/08/24 05:54:29;;;;;;;0.10;0.10;;;15.80;99.90;;;;;;5092819;28;20225;-77
2023/08/24 05:56:55;;;;;;;0.10;0.10;;;15.80;99.90;;;;;;5063132;28;20433;-77
2023/08/24 05:59:21;;;;;;;0.10;0.10;;;15.80;99.90;;;;;;5068100;28;20270;-77
2023/08/24 06:01:46;;;;;;;0.10;0.10;;;16.00;99.90;;;;;;5072554;28;20185;-78
2023/08/24 06:04:12;;;;;;;0.10;0.10;;;16.10;99.90;;;;;;5073508;28;20452;-77
2023/08/24 06:06:37;;;;;;;0.10;0.10;;;16.20;99.90;;;;;;5065786;28;20198;-78
2023/08/24 06:09:04;;;;;;;0.10;0.10;;;16.30;99.90;;;;;;5061349;28;20198;-78
2023/08/24 06:11:30;;;;;;;0.10;0.10;;;16.30;99.90;;;;;;5060488;28;20225;-78
2023/08/24 06:13:55;;;;;;;0.10;0.10;;;16.40;99.90;;;;;;5067971;28;20487;-78
2023/08/24 06:16:21;;;;;;;0.10;0.10;;;16.40;99.90;;;;;;5067337;28;20222;-79
2023/08/24 06:18:47;;;;;;;0.10;0.10;;;16.50;99.90;;;;;;5067885;28;20185;-78
2023/08/24 06:21:12;;;;;;;0.10;0.10;;;16.50;99.90;;;;;;5074043;28;20265;-78
2023/08/24 06:23:41;;;;;;;0.10;0.10;;;16.60;99.90;;;;;;5060760;28;20186;-78
2023/08/24 06:26:06;;;;;;;0.10;0.10;;;16.60;99.90;;;;;;5069379;28;20204;-79
2023/08/24 06:28:32;;;;;;;0.10;0.10;;;16.80;99.90;;;;;;5070487;28;20543;-78
2023/08/24 06:30:59;;;;;;;0.10;0.10;;;16.80;99.90;;;;;;5086217;28;20244;-78
2023/08/24 06:33:31;;;;;;;0.10;0.10;;;16.90;99.90;;;;;;5086372;28;20281;-78
2023/08/24 06:35:57;;;;;;;0.10;0.10;;;16.90;99.90;;;;;;5085871;28;21066;-76
2023/08/24 06:38:23;;;;;;;0.10;0.10;;;17.00;99.90;;;;;;5085570;28;20427;-79
2023/08/24 06:40:48;;;;;;;0.10;0.10;;;17.10;99.90;;;;;;5081792;28;20681;-78
2023/08/24 06:43:14;;;;;;;0.10;0.10;;;17.30;99.90;;;;;;5084741;28;21052;-79
2023/08/24 06:45:40;;;;;;;0.10;0.10;;;17.40;99.90;;;;;;5085513;28;20183;-79
2023/08/24 06:48:07;;;;;;;0.10;0.10;;;17.60;99.90;;;;;;5085979;28;20190;-78
2023/08/24 06:50:33;;;;;;;0.10;0.10;;;17.70;99.90;;;;;;5092330;28;20420;-79
2023/08/24 06:52:58;;;;;;;0.10;0.10;;;17.70;99.90;;;;;;5090285;28;20508;-79
2023/08/24 06:55:24;;;;;;;0.10;0.10;;;17.80;99.90;;;;;;5088392;28;20982;-79
2023/08/24 06:57:52;;;;;;;0.10;0.10;;;17.90;99.90;;;;;;5087353;28;20590;-79
2023/08/24 07:00:19;;;;;;;0.10;0.10;;;18.00;99.90;;;;;;5089818;28;20184;-79
2023/08/24 07:02:49;;;;;;;0.10;0.10;;;18.00;99.90;;;;;;5083970;28;20496;-79
2023/08/24 07:05:18;;;;;;;0.10;0.10;;;18.20;99.90;;;;;;5089667;28;20476;-79
2023/08/24 07:07:44;;;;;;;0.10;0.10;;;18.10;99.90;;;;;;5092308;28;20435;-79
2023/08/24 07:10:10;;;;;;;0.10;0.10;;;18.30;99.90;;;;;;5086701;28;20451;-79
2023/08/24 07:12:35;;;;;;;0.10;0.10;;;18.30;99.90;;;;;;5092750;28;20422;-79
2023/08/24 07:15:01;;;;;;;0.10;0.10;;;18.30;99.90;;;;;;5091501;28;20225;-78
2023/08/24 07:17:27;;;;;;;0.10;0.10;;;18.30;99.90;;;;;;5089581;28;20189;-79
2023/08/24 07:19:53;;;;;;;0.10;0.10;;;18.30;99.90;;;;;;5088628;28;20458;-79
2023/08/24 07:22:19;;;;;;;0.10;0.10;;;18.30;99.90;;;;;;5089733;28;20207;-79
2023/08/24 07:24:45;;;;;;;0.10;0.10;;;18.50;99.90;;;;;;5091349;28;20205;-80
2023/08/24 07:27:10;;;;;;;0.10;0.10;;;18.70;99.90;;;;;;5090656;28;20566;-80
2023/08/24 07:29:36;;;;;;;0.10;0.10;;;18.60;99.90;;;;;;5100693;28;20231;-79
2023/08/24 07:32:03;;;;;;;0.10;0.10;;;18.60;99.90;;;;;;5092047;28;20188;-79
2023/08/24 07:34:29;;;;;;;0.10;0.10;;;18.80;99.90;;;;;;5108950;28;20216;-78
2023/08/24 07:36:54;;;;;;;0.10;0.10;;;18.80;99.90;;;;;;5106407;28;20957;-78
2023/08/24 07:39:20;;;;;;;0.10;0.10;;;19.00;99.90;;;;;;5089603;28;20438;-78
2023/08/24 07:41:46;;;;;;;0.10;0.10;;;19.00;99.90;;;;;;5105588;28;20192;-79
2023/08/24 07:44:11;;;;;;;0.10;0.10;;;19.00;99.90;;;;;;5108413;28;20184;-79
2023/08/24 07:46:38;;;;;;;0.10;0.10;;;19.20;99.90;;;;;;5084346;28;20176;-79
2023/08/24 07:49:05;;;;;;;0.10;0.10;;;19.30;99.90;;;;;;5105692;28;20192;-80
2023/08/24 07:51:32;;;;;;;0.10;0.00;;;19.40;99.90;;;;;;5090930;28;20861;-80
2023/08/24 07:53:57;;;;;;;0.10;0.00;;;19.40;99.90;;;;;;5104417;28;21155;-79
2023/08/24 07:56:23;;;;;;;0.10;0.10;;;19.20;99.90;;;;;;5103342;28;20449;-79
2023/08/24 07:58:48;;;;;;;0.10;0.00;;;19.40;99.90;;;;;;5110944;28;20547;-79
2023/08/24 08:01:14;;;;;;;0.10;0.10;;;19.50;99.90;;;;;;5090033;28;20188;-79
2023/08/24 08:03:39;;;;;;;0.10;0.00;;;19.60;99.90;;;;;;5103407;28;20176;-79
2023/08/24 08:06:05;;;;;;;0.10;0.00;;;19.60;99.90;;;;;;5104475;28;20195;-79
2023/08/24 08:08:31;;;;;;;0.10;0.00;;;20.00;99.90;;;;;;5090491;28;20174;-79
2023/08/24 08:11:01;;;;;;;0.10;0.00;;;20.00;99.90;;;;;;5107171;28;20191;-79
2023/08/24 08:13:27;;;;;;;0.10;0.10;;;20.30;99.90;;;;;;5109198;28;20208;-80
2023/08/24 08:15:53;;;;;;;0.10;0.00;;;20.40;99.90;;;;;;5110916;28;20496;-80
2023/08/24 08:18:18;;;;;;;0.10;0.00;;;20.40;99.90;;;;;;5110250;28;20430;-79
2023/08/24 08:20:44;;;;;;;0.10;0.00;;;20.60;99.90;;;;;;5109488;28;20180;-80
2023/08/24 08:23:09;;;;;;;0.10;0.00;;;20.50;99.90;;;;;;5088368;28;20584;-80
2023/08/24 08:25:35;;;;;;;0.10;0.00;;;20.80;99.90;;;;;;5106196;28;20238;-80
2023/08/24 08:28:00;;;;;;;0.10;0.00;;;21.00;99.90;;;;;;5105232;28;20192;-80
2023/08/24 08:30:26;;;;;;;0.10;0.00;;;21.20;99.90;;;;;;5087647;28;20221;-80
2023/08/24 08:32:52;;;;;;;0.10;0.00;;;21.00;99.90;;;;;;5090368;28;20176;-79
2023/08/24 08:35:18;;;;;;;0.10;0.00;;;21.30;99.90;;;;;;5108019;27;20213;-80
2023/08/24 08:37:46;;;;;;;0.10;0.00;;;21.20;99.90;;;;;;5108508;27;20568;-79
2023/08/24 08:40:12;;;;;;;0.10;0.00;;;21.20;99.90;;;;;;5109522;27;20437;-80
2023/08/24 08:42:38;;;;;;;0.10;0.00;;;21.00;99.90;;;;;;5105964;27;21163;-80
2023/08/24 08:45:08;;;;;;;0.10;0.10;;;20.90;99.90;;;;;;5092078;27;20188;-79
2023/08/24 08:47:34;;;;;;;0.10;0.00;;;20.90;99.90;;;;;;5090471;27;20184;-79
2023/08/24 08:50:03;;;;;;;0.10;0.00;;;20.70;99.90;;;;;;5115820;27;20440;-79
2023/08/24 08:52:29;;;;;;;0.10;0.00;;;20.50;99.90;;;;;;5111680;27;20602;-79
2023/08/24 08:54:54;;;;;;;0.10;0.00;;;20.90;99.90;;;;;;5109386;27;20565;-79
2023/08/24 08:57:22;;;;;;;0.10;0.00;;;21.10;99.90;;;;;;5112739;27;20257;-80
2023/08/24 08:59:50;;;;;;;0.10;0.00;;;21.40;99.90;;;;;;5106654;28;20188;-79
2023/08/24 09:02:19;;;;;;;0.10;0.00;;;21.80;99.90;;;;;;5090109;28;20577;-79
2023/08/24 09:04:45;;;;;;;0.10;0.00;;;21.90;99.90;;;;;;5100256;27;20454;-79
2023/08/24 09:07:15;;;;;;;0.10;0.00;;;21.90;99.90;;;;;;5085125;28;20491;-79
2023/08/24 09:09:42;;;;;;;0.10;0.00;;;22.60;99.90;;;;;;5108312;28;20786;-79
2023/08/24 09:12:08;;;;;;;0.10;0.00;;;22.30;99.90;;;;;;5099892;28;20458;-79
2023/08/24 09:14:34;;;;;;;0.10;0.00;;;22.60;99.90;;;;;;5095016;28;20828;-79
2023/08/24 09:17:00;;;;;;;0.10;0.00;;;22.60;99.90;;;;;;5090664;28;20219;-79
2023/08/24 09:19:30;;;;;;;0.10;0.00;;;22.60;99.90;;;;;;5109136;28;20461;-79
2023/08/24 09:22:00;;;;;;;0.10;0.00;;;22.80;99.90;;;;;;5104827;28;20188;-80
2023/08/24 09:24:33;;;;;;;0.10;0.00;;;22.70;99.90;;;;;;5105966;28;20453;-79
2023/08/24 09:27:00;;;;;;;0.10;0.10;;;22.90;99.90;;;;;;5090394;28;20438;-78
2023/08/24 09:29:26;;;;;;;0.10;0.00;;;23.00;99.90;;;;;;5110316;28;20883;-79
2023/08/24 09:31:51;;;;;;;0.10;0.00;;;23.10;99.90;;;;;;5108965;28;21066;-79
2023/08/24 09:34:21;;;;;;;0.10;0.00;;;23.20;99.90;;;;;;5100178;28;20224;-78
2023/08/24 09:36:47;;;;;;;0.10;0.00;;;23.40;99.90;;;;;;5109686;28;20192;-79
2023/08/24 09:39:16;;;;;;;0.10;0.00;;;23.20;99.90;;;;;;5105501;28;20434;-79
2023/08/24 09:41:45;;;;;;;0.10;0.00;;;23.30;99.90;;;;;;5108725;28;20270;-79
2023/08/24 09:44:11;;;;;;;0.10;0.00;;;23.20;99.90;;;;;;5105042;28;20437;-78
2023/08/24 09:46:38;;;;;;;0.10;0.00;;;23.60;99.90;;;;;;5101654;28;20448;-79
2023/08/24 09:49:08;;;;;;;0.10;0.00;;;23.70;99.90;;;;;;5115402;27;20453;-78
2023/08/24 09:51:35;;;;;;;0.10;0.00;;;23.80;99.90;;;;;;5116846;28;20559;-79
2023/08/24 09:54:08;;;;;;;0.10;0.00;;;23.80;99.90;;;;;;5119011;28;20452;-79
2023/08/24 09:56:37;;;;;;;0.10;0.00;;;23.70;99.90;;;;;;5113158;28;20437;-80
2023/08/24 09:59:07;;;;;;;0.10;0.00;;;23.70;99.90;;;;;;5108531;28;20519;-78
2023/08/24 10:01:34;;;;;;;0.10;0.00;;;23.60;99.90;;;;;;5091781;28;20799;-78
2023/08/24 10:04:01;;;;;;;0.10;0.00;;;23.90;99.90;;;;;;5111874;28;20447;-78
2023/08/24 10:06:29;;;;;;;0.10;0.00;;;23.80;99.90;;;;;;5108000;28;20434;-78
2023/08/24 10:08:58;;;;;;;0.10;0.00;;;24.00;99.90;;;;;;5106753;28;20476;-80
2023/08/24 10:11:28;;;;;;;0.10;0.00;;;24.30;99.90;;;;;;5109044;28;20451;-79
2023/08/24 10:14:12;;;;;;;0.10;0.00;;;24.30;99.90;;;;;;5103743;27;20435;-79
2023/08/24 10:16:38;;;;;;;0.10;0.00;;;24.60;99.90;;;;;;5109949;27;20447;-78
2023/08/24 10:19:04;;;;;;;0.10;0.00;;;25.30;99.90;;;;;;5114712;27;20558;-79
2023/08/24 10:21:30;;;;;;;0.10;0.00;;;25.30;99.90;;;;;;5112464;27;20525;-79
2023/08/24 10:23:57;;;;;;;0.10;0.00;;;25.60;99.90;;;;;;5093619;28;20443;-80
2023/08/24 10:26:23;;;;;;;0.10;0.00;;;25.60;99.90;;;;;;5110371;28;20441;-82
2023/08/24 10:28:50;;;;;;;0.10;0.00;;;25.90;99.90;;;;;;5109611;28;20516;-80
2023/08/24 10:31:16;;;;;;;0.10;0.00;;;25.70;99.90;;;;;;5105654;28;20487;-81
2023/08/24 10:33:44;;;;;;;0.10;0.00;;;25.80;99.90;;;;;;5109083;28;20439;-81
2023/08/24 10:36:10;;;;;;;0.10;0.00;;;26.20;99.90;;;;;;5107624;28;20184;-81
2023/08/24 10:38:42;;;;;;;0.10;0.00;;;26.20;99.90;;;;;;5107742;27;20722;-81
2023/08/24 10:41:08;;;;;;;0.10;0.00;;;26.20;99.90;;;;;;5111169;28;20186;-81
2023/08/24 10:43:37;;;;;;;0.10;0.00;;;26.20;99.90;;;;;;5115614;27;20437;-81
2023/08/24 10:46:04;;;;;;;0.10;0.00;;;26.20;99.90;;;;;;5120408;27;20884;-81
2023/08/24 10:48:41;;;;;;;0.10;0.00;;;26.70;99.90;;;;;;5111339;28;20419;-81
2023/08/24 10:51:28;;;;;;;0.10;0.00;;;26.40;99.90;;;;;;5107105;28;20438;-81
2023/08/24 10:53:57;;;;;;;0.10;0.00;;;26.10;99.90;;;;;;5111162;28;20922;-80
2023/08/24 10:56:35;;;;;;;0.10;0.00;;;26.20;99.90;;;;;;5118862;27;20449;-80
2023/08/24 10:59:15;;;;;;;0.10;0.00;;;26.40;99.90;;;;;;5104940;28;20454;-82
2023/08/24 11:01:55;;;;;;;0.10;0.00;;;26.70;99.90;;;;;;5113261;27;20451;-81
2023/08/24 11:04:21;;;;;;;0.10;0.00;;;26.00;99.90;;;;;;5111702;27;20470;-81
2023/08/24 11:07:01;;;;;;;0.10;0.00;;;26.40;99.90;;;;;;5098568;27;20443;-81
2023/08/24 11:09:46;;;;;;;0.10;0.00;;;27.10;99.90;;;;;;5112570;27;20476;-81
2023/08/24 11:12:12;;;;;;;0.10;0.00;;;27.20;99.90;;;;;;5110929;28;20615;-82
2023/08/24 11:14:51;;;;;;;0.10;0.00;;;27.80;99.90;;;;;;5116060;27;20552;-80
2023/08/24 11:17:22;;;;;;;0.10;0.00;;;27.40;99.90;;;;;;5093645;28;20182;-80
2023/08/24 11:19:52;;;;;;;0.10;0.00;;;27.80;99.90;;;;;;5110939;28;20864;-80
2023/08/24 11:22:18;;;;;;;0.10;0.00;;;27.90;99.90;;;;;;5102548;27;20454;-82
2023/08/24 11:24:45;;;;;;;0.10;0.00;;;28.60;99.90;;;;;;5111406;28;20403;-79
2023/08/24 11:27:10;;;;;;;0.10;0.00;;;28.20;99.90;;;;;;5110564;28;20670;-80
2023/08/24 11:29:36;;;;;;;0.10;0.00;;;27.80;99.90;;;;;;5110174;28;20482;-79
2023/08/24 11:32:02;;;;;;;0.10;0.00;;;28.30;99.90;;;;;;5107954;27;20266;-79
2023/08/24 11:34:29;;;;;;;0.10;0.00;;;28.50;99.90;;;;;;5091470;28;20220;-79
2023/08/24 11:36:54;;;;;;;0.10;0.00;;;28.00;99.90;;;;;;5087337;28;20437;-79
2023/08/24 11:39:22;;;;;;;0.10;0.00;;;27.80;99.90;;;;;;5107769;27;20445;-79
2023/08/24 11:41:58;;;;;;;0.10;0.00;;;27.80;99.90;;;;;;5091510;28;20189;-79
2023/08/24 11:44:23;;;;;;;0.10;0.00;;;27.60;99.90;;;;;;5110705;27;20442;-78
2023/08/24 11:46:49;;;;;;;0.10;0.00;;;27.60;99.90;;;;;;5089302;27;20441;-78
2023/08/24 11:49:15;;;;;;;0.10;0.00;;;27.00;99.90;;;;;;5129760;27;20627;-79
2023/08/24 11:51:40;;;;;;;0.10;0.00;;;26.50;99.90;;;;;;5109867;28;20191;-80
2023/08/24 11:54:06;;;;;;;0.10;0.00;;;26.20;99.90;;;;;;5110201;28;20574;-80
2023/08/24 11:56:32;;;;;;;0.10;0.00;;;26.30;99.90;;;;;;5105480;27;20275;-80
2023/08/24 11:58:57;;;;;;;0.10;0.00;;;26.10;99.90;;;;;;5092559;28;20301;-80
2023/08/24 12:01:24;;;;;;;0.10;0.00;;;26.20;99.90;;;;;;5107340;28;20238;-80
2023/08/24 12:03:50;;;;;;;0.00;0.00;;;26.70;99.90;;;;;;5107593;28;20555;-80
2023/08/24 12:06:16;;;;;;;0.10;0.00;;;26.40;99.90;;;;;;5094026;28;20475;-80
2023/08/24 12:08:46;;;;;;;0.10;0.00;;;26.20;99.90;;;;;;5092741;28;20291;-80
2023/08/24 12:11:16;;;;;;;0.10;0.00;;;26.20;99.90;;;;;;5090346;28;20499;-79
2023/08/24 12:13:53;;;;;;;0.10;0.00;;;26.50;99.90;;;;;;5089169;27;20530;-80
2023/08/24 12:16:20;;;;;;;0.10;0.00;;;26.20;99.90;;;;;;5091894;28;22206;-80
2023/08/24 12:18:59;;;;;;;0.10;0.00;;;26.20;99.90;;;;;;5108656;28;20914;-79
2023/08/24 12:21:25;;;;;;;0.10;0.00;;;26.50;99.90;;;;;;5100895;28;20469;-79
2023/08/24 12:24:05;;;;;;;0.00;0.00;;;27.00;99.90;;;;;;5092703;28;20549;-78
2023/08/24 12:26:34;;;;;;;0.10;0.00;;;27.00;99.90;;;;;;5108968;28;20510;-78
2023/08/24 12:29:02;;;;;;;0.10;0.00;;;27.30;99.90;;;;;;5112867;28;20513;-77
2023/08/24 12:31:29;;;;;;;0.00;0.00;;;28.20;99.90;;;;;;5090367;28;20953;-77
2023/08/24 12:34:04;;;;;;;0.10;0.00;;;28.60;99.90;;;;;;5123638;27;20513;-78
2023/08/24 12:36:32;;;;;;;0.10;0.00;;;28.70;99.90;;;;;;5093209;28;20478;-79
2023/08/24 12:38:58;;;;;;;0.10;0.10;;;28.70;99.90;;;;;;5092244;28;20414;-77
2023/08/24 12:41:23;;;;;;;0.10;0.00;;;29.20;99.90;;;;;;5106862;27;20442;-78
2023/08/24 12:43:51;;;;;;;0.10;0.00;;;29.60;99.90;;;;;;5109159;27;20640;-78
2023/08/24 12:46:17;;;;;;;0.10;0.00;;;29.80;99.90;;;;;;5090407;28;20664;-79
2023/08/24 12:48:42;;;;;;;0.10;0.00;;;29.50;99.90;;;;;;5073118;28;20442;-80